createdAt,value
2022-12-03T00:00:12.907Z,87.53
2022-12-03T00:03:05.020Z,87.59
2022-12-03T00:05:33.280Z,87.67
2022-12-03T00:08:01.560Z,87.59
2022-12-03T00:10:31.378Z,87.68
2022-12-03T00:12:59.467Z,87.42
2022-12-03T00:15:27.768Z,87.49
2022-12-03T00:17:56.254Z,87.66
2022-12-03T00:20:25.410Z,87.82
2022-12-03T00:22:53.651Z,87.72
2022-12-03T00:25:21.940Z,87.69
2022-12-03T00:27:49.980Z,87.57
2022-12-03T00:30:18.634Z,87.68
2022-12-03T00:32:47.114Z,87.56
2022-12-03T00:35:15.421Z,87.70
2022-12-03T00:37:43.693Z,87.77
2022-12-03T00:40:12.919Z,87.62
2022-12-03T00:42:43.862Z,87.51
2022-12-03T00:45:12.822Z,87.49
2022-12-03T00:47:44.111Z,87.66
2022-12-03T00:50:13.307Z,87.66
2022-12-03T00:52:41.924Z,87.82
2022-12-03T00:55:10.319Z,88.00
2022-12-03T00:57:38.385Z,87.87
2022-12-03T01:00:07.384Z,87.88
2022-12-03T01:02:35.910Z,87.83
2022-12-03T01:05:04.954Z,87.69
2022-12-03T01:07:33.476Z,87.82
2022-12-03T01:10:02.477Z,87.85
2022-12-03T01:12:30.571Z,88.03
2022-12-03T01:14:58.822Z,87.86
2022-12-03T01:17:27.026Z,87.73
2022-12-03T01:19:55.231Z,87.67
2022-12-03T01:22:23.760Z,87.88
2022-12-03T01:24:52.378Z,87.94
2022-12-03T01:27:20.685Z,87.73
2022-12-03T01:29:49.516Z,87.85
2022-12-03T01:32:19.786Z,87.82
2022-12-03T01:34:54.229Z,87.74
2022-12-03T01:37:25.191Z,87.78
2022-12-03T01:39:53.461Z,87.88
2022-12-03T01:42:24.958Z,87.95
2022-12-03T01:44:57.229Z,87.84
2022-12-03T01:47:30.448Z,87.89
2022-12-03T01:50:01.740Z,87.85
2022-12-03T01:52:31.769Z,88.08
2022-12-03T01:55:03.485Z,88.15
2022-12-03T01:57:42.368Z,88.09
2022-12-03T02:00:17.207Z,88.17
2022-12-03T02:03:17.128Z,87.97
2022-12-03T02:05:45.474Z,88.12
2022-12-03T02:08:46.985Z,88.23
2022-12-03T02:11:35.885Z,88.18
2022-12-03T02:14:08.324Z,88.11
2022-12-03T02:16:38.560Z,88.05
2022-12-03T02:19:16.680Z,87.98
2022-12-03T02:22:01.716Z,88.08
2022-12-03T02:24:54.043Z,88.02
2022-12-03T02:27:23.263Z,87.70
2022-12-03T02:29:51.839Z,87.64
2022-12-03T02:32:23.394Z,87.66
2022-12-03T02:34:52.323Z,87.57
2022-12-03T02:37:26.812Z,87.55
2022-12-03T02:39:58.825Z,87.63
2022-12-03T02:42:36.055Z,87.59
2022-12-03T02:45:10.008Z,87.58
2022-12-03T02:47:44.781Z,87.69
2022-12-03T02:50:18.052Z,87.52
2022-12-03T02:52:47.924Z,87.56
2022-12-03T02:55:17.947Z,87.68
2022-12-03T02:57:49.100Z,87.60
2022-12-03T03:00:19.116Z,87.53
2022-12-03T03:02:51.072Z,87.57
2022-12-03T03:05:23.475Z,87.46
2022-12-03T03:07:52.320Z,87.43
2022-12-03T03:10:23.548Z,87.43
2022-12-03T03:12:54.194Z,87.34
2022-12-03T03:15:23.585Z,87.38
2022-12-03T03:17:52.064Z,87.39
2022-12-03T03:20:20.282Z,87.49
2022-12-03T03:22:48.534Z,87.36
2022-12-03T03:25:21.124Z,87.50
2022-12-03T03:27:49.780Z,87.59
2022-12-03T03:30:17.872Z,87.69
2022-12-03T03:32:45.989Z,87.50
2022-12-03T03:35:14.902Z,87.43
2022-12-03T03:37:43.089Z,87.35
2022-12-03T03:40:12.194Z,87.37
2022-12-03T03:42:40.741Z,87.38
2022-12-03T03:45:09.714Z,87.29
2022-12-03T03:47:38.931Z,87.40
2022-12-03T03:50:08.889Z,87.40
2022-12-03T03:52:37.946Z,87.32
2022-12-03T03:55:08.085Z,87.35
2022-12-03T03:57:36.724Z,87.47
2022-12-03T04:00:09.357Z,87.37
2022-12-03T04:02:38.109Z,87.40
2022-12-03T04:05:07.056Z,87.45
2022-12-03T04:07:35.122Z,87.34
2022-12-03T04:10:24.142Z,87.26
2022-12-03T04:12:57.942Z,87.30
2022-12-03T04:15:26.490Z,87.21
2022-12-03T04:18:13.354Z,87.12
2022-12-03T04:20:43.123Z,87.27
2022-12-03T04:23:11.420Z,87.18
2022-12-03T04:25:58.465Z,87.20
2022-12-03T04:28:45.649Z,87.33
2022-12-03T04:31:37.022Z,87.19
2022-12-03T04:34:24.381Z,87.12
2022-12-03T04:36:52.553Z,87.10
2022-12-03T04:39:21.178Z,86.97
2022-12-03T04:41:49.377Z,87.19
2022-12-03T04:44:36.389Z,87.20
2022-12-03T04:47:12.247Z,87.27
2022-12-03T04:49:48.962Z,87.29
2022-12-03T04:52:18.819Z,87.19
2022-12-03T04:54:47.371Z,87.10
2022-12-03T04:57:15.850Z,87.07
2022-12-03T04:59:44.097Z,87.31
2022-12-03T05:02:12.237Z,87.24
2022-12-03T05:04:40.606Z,87.19
2022-12-03T05:07:09.093Z,87.19
2022-12-03T05:09:37.143Z,87.42
2022-12-03T05:12:05.442Z,87.31
2022-12-03T05:14:33.661Z,87.31
2022-12-03T05:17:01.819Z,87.22
2022-12-03T05:19:48.789Z,87.24
2022-12-03T05:22:17.602Z,87.28
2022-12-03T05:24:45.799Z,87.33
2022-12-03T05:27:15.790Z,87.27
2022-12-03T05:29:47.681Z,87.23
2022-12-03T05:32:16.047Z,87.33
2022-12-03T05:34:44.165Z,87.44
2022-12-03T05:37:12.482Z,87.39
2022-12-03T05:39:40.816Z,87.41
2022-12-03T05:42:28.669Z,87.36
2022-12-03T05:44:57.776Z,87.44
2022-12-03T05:47:25.864Z,87.33
2022-12-03T05:49:54.009Z,87.27
2022-12-03T05:52:22.470Z,87.33
2022-12-03T05:54:51.170Z,87.38
2022-12-03T05:57:19.406Z,87.44
2022-12-03T05:59:47.800Z,87.39
2022-12-03T06:02:16.322Z,87.15
2022-12-03T06:04:44.584Z,87.36
2022-12-03T06:07:14.273Z,87.37
2022-12-03T06:09:43.529Z,87.48
2022-12-03T06:12:11.592Z,87.60
2022-12-03T06:14:39.911Z,87.62
2022-12-03T06:17:08.296Z,87.57
2022-12-03T06:19:36.399Z,87.54
2022-12-03T06:22:04.788Z,87.57
2022-12-03T06:24:32.897Z,87.70
2022-12-03T06:27:00.956Z,87.67
2022-12-03T06:29:29.139Z,87.66
2022-12-03T06:31:57.262Z,87.53
2022-12-03T06:34:25.517Z,87.61
2022-12-03T06:36:53.996Z,87.46
2022-12-03T06:39:22.893Z,87.53
2022-12-03T06:41:51.227Z,87.60
2022-12-03T06:44:19.738Z,87.59
2022-12-03T06:46:48.127Z,87.59
2022-12-03T06:49:16.287Z,87.63
2022-12-03T06:51:44.848Z,87.55
2022-12-03T06:54:12.923Z,87.50
2022-12-03T06:56:45.182Z,87.52
2022-12-03T06:59:14.399Z,87.67
2022-12-03T07:01:42.898Z,87.61
2022-12-03T07:04:11.108Z,87.56
2022-12-03T07:06:39.857Z,87.62
2022-12-03T07:09:08.034Z,87.43
2022-12-03T07:11:42.216Z,87.45
2022-12-03T07:14:11.596Z,87.56
2022-12-03T07:16:40.132Z,87.77
2022-12-03T07:19:08.860Z,87.59
2022-12-03T07:21:37.102Z,87.66
2022-12-03T07:24:05.833Z,87.53
2022-12-03T07:26:34.225Z,87.44
2022-12-03T07:29:02.727Z,87.38
2022-12-03T07:31:31.319Z,87.43
2022-12-03T07:33:59.751Z,87.35
2022-12-03T07:36:27.899Z,87.44
2022-12-03T07:38:55.996Z,87.64
2022-12-03T07:41:24.111Z,87.62
2022-12-03T07:43:52.487Z,87.64
2022-12-03T07:46:20.664Z,87.63
2022-12-03T07:48:48.753Z,87.44
2022-12-03T07:51:17.278Z,87.09
2022-12-03T07:53:45.427Z,87.00
2022-12-03T07:56:13.757Z,87.19
2022-12-03T07:58:42.141Z,86.99
2022-12-03T08:01:10.541Z,86.88
2022-12-03T08:03:38.895Z,86.85
2022-12-03T08:06:09.400Z,86.62
2022-12-03T08:08:37.573Z,86.57
2022-12-03T08:11:06.412Z,86.48
2022-12-03T08:13:34.919Z,86.59
2022-12-03T08:16:14.955Z,86.59
2022-12-03T08:18:43.545Z,86.65
2022-12-03T08:21:14.213Z,86.77
2022-12-03T08:23:42.897Z,86.93
2022-12-03T08:26:26.440Z,86.58
2022-12-03T08:28:54.746Z,86.65
2022-12-03T08:31:32.497Z,86.59
2022-12-03T08:34:19.915Z,86.31
2022-12-03T08:36:52.186Z,86.18
2022-12-03T08:39:23.521Z,86.15
2022-12-03T08:42:21.202Z,86.17
2022-12-03T08:44:49.518Z,86.36
2022-12-03T08:47:24.934Z,86.09
2022-12-03T08:50:01.419Z,86.03
2022-12-03T08:52:34.060Z,85.90
2022-12-03T08:55:32.059Z,85.97
2022-12-03T08:58:00.629Z,85.75
2022-12-03T09:00:28.745Z,85.34
2022-12-03T09:03:01.290Z,85.10
2022-12-03T09:05:34.998Z,85.08
2022-12-03T09:08:03.381Z,85.12
2022-12-03T09:10:31.664Z,85.10
2022-12-03T09:12:59.827Z,84.97
2022-12-03T09:15:28.629Z,84.94
2022-12-03T09:17:56.920Z,85.24
2022-12-03T09:20:24.963Z,85.21
2022-12-03T09:22:53.207Z,84.91
2022-12-03T09:25:21.556Z,85.00
2022-12-03T09:27:50.109Z,84.96
2022-12-03T09:30:18.527Z,85.13
2022-12-03T09:32:46.739Z,84.58
2022-12-03T09:35:17.813Z,84.32
2022-12-03T09:37:46.023Z,84.41
2022-12-03T09:40:14.951Z,84.27
2022-12-03T09:42:43.026Z,84.62
2022-12-03T09:45:13.477Z,84.48
2022-12-03T09:47:45.846Z,84.18
2022-12-03T09:50:16.453Z,84.48
2022-12-03T09:52:45.622Z,84.17
2022-12-03T09:55:17.736Z,83.99
2022-12-03T09:57:47.220Z,84.16
2022-12-03T10:00:21.880Z,84.42
2022-12-03T10:02:52.980Z,84.43
2022-12-03T10:05:22.682Z,84.31
2022-12-03T10:07:52.369Z,84.09
2022-12-03T10:10:25.562Z,83.89
2022-12-03T10:12:55.460Z,84.02
2022-12-03T10:15:24.421Z,84.51
2022-12-03T10:17:54.716Z,84.56
2022-12-03T10:20:24.839Z,84.41
2022-12-03T10:22:53.274Z,84.31
2022-12-03T10:25:23.121Z,84.36
2022-12-03T10:28:04.328Z,84.60
2022-12-03T10:30:33.341Z,84.40
2022-12-03T10:33:17.320Z,84.49
2022-12-03T10:35:47.397Z,84.54
2022-12-03T10:38:24.999Z,84.39
2022-12-03T10:40:53.387Z,84.47
2022-12-03T10:43:23.691Z,84.55
2022-12-03T10:46:04.897Z,84.47
2022-12-03T10:48:33.327Z,84.21
2022-12-03T10:51:21.833Z,84.28
2022-12-03T10:53:50.949Z,84.46
2022-12-03T10:56:25.439Z,84.52
2022-12-03T10:58:54.561Z,84.61
2022-12-03T11:01:25.205Z,84.77
2022-12-03T11:04:01.232Z,84.49
2022-12-03T11:06:31.688Z,84.39
2022-12-03T11:09:05.255Z,84.27
2022-12-03T11:11:37.204Z,84.42
2022-12-03T11:14:05.737Z,84.68
2022-12-03T11:16:39.653Z,84.73
2022-12-03T11:19:36.281Z,84.59
2022-12-03T11:22:05.121Z,84.62
2022-12-03T11:24:38.225Z,84.78
2022-12-03T11:27:17.108Z,84.64
2022-12-03T11:30:00.157Z,84.51
2022-12-03T11:32:43.818Z,84.66
2022-12-03T11:35:26.046Z,84.73
2022-12-03T11:37:54.545Z,84.66
2022-12-03T11:40:22.604Z,84.70
2022-12-03T11:42:50.865Z,84.68
2022-12-03T11:45:29.391Z,85.08
2022-12-03T11:48:31.408Z,85.11
2022-12-03T11:50:59.627Z,84.92
2022-12-03T11:53:31.515Z,84.84
2022-12-03T11:56:11.115Z,84.88
2022-12-03T11:58:43.721Z,84.77
2022-12-03T12:01:13.171Z,84.82
2022-12-03T12:03:41.659Z,84.88
2022-12-03T12:06:18.291Z,84.82
2022-12-03T12:08:52.406Z,84.74
2022-12-03T12:11:31.520Z,84.84
2022-12-03T12:14:05.141Z,84.91
2022-12-03T12:16:37.342Z,85.02
2022-12-03T12:19:31.584Z,85.15
2022-12-03T12:22:27.175Z,85.14
2022-12-03T12:24:57.850Z,84.91
2022-12-03T12:27:39.494Z,84.86
2022-12-03T12:30:19.752Z,85.06
2022-12-03T12:32:56.141Z,85.36
2022-12-03T12:35:27.393Z,85.34
2022-12-03T12:38:07.563Z,85.71
2022-12-03T12:40:38.396Z,85.61
2022-12-03T12:43:27.322Z,85.51
2022-12-03T12:46:09.475Z,85.28
2022-12-03T12:48:48.480Z,85.46
2022-12-03T12:51:21.363Z,85.28
2022-12-03T12:53:50.377Z,85.30
2022-12-03T12:56:32.325Z,85.58
2022-12-03T12:59:14.974Z,85.51
2022-12-03T13:01:45.279Z,85.55
2022-12-03T13:04:19.691Z,85.65
2022-12-03T13:06:50.534Z,85.86
2022-12-03T13:09:24.535Z,85.98
2022-12-03T13:11:58.650Z,86.14
2022-12-03T13:14:36.809Z,86.07
2022-12-03T13:17:26.109Z,86.07
2022-12-03T13:20:05.555Z,86.05
2022-12-03T13:22:36.145Z,86.09
2022-12-03T13:25:59.311Z,86.22
2022-12-03T13:28:26.406Z,86.35
2022-12-03T13:30:54.688Z,86.51
2022-12-03T13:33:28.808Z,86.46
2022-12-03T13:35:57.603Z,86.53
2022-12-03T13:38:28.445Z,86.48
2022-12-03T13:41:05.243Z,86.59
2022-12-03T13:43:38.719Z,86.64
2022-12-03T13:46:11.591Z,86.64
2022-12-03T13:48:40.420Z,86.71
2022-12-03T13:51:20.130Z,86.65
2022-12-03T13:53:48.587Z,86.68
2022-12-03T13:56:28.995Z,86.73
2022-12-03T13:59:00.522Z,86.99
2022-12-03T14:01:29.401Z,87.18
2022-12-03T14:04:00.713Z,87.14
2022-12-03T14:06:29.062Z,87.22
2022-12-03T14:08:57.537Z,87.37
2022-12-03T14:11:44.046Z,87.52
2022-12-03T14:14:12.563Z,87.52
2022-12-03T14:16:40.774Z,87.53
2022-12-03T14:19:09.065Z,87.65
2022-12-03T14:21:37.395Z,87.88
2022-12-03T14:24:06.126Z,87.78
2022-12-03T14:26:37.594Z,87.84
2022-12-03T14:29:08.775Z,87.87
2022-12-03T14:31:40.307Z,87.88
2022-12-03T14:34:08.801Z,88.01
2022-12-03T14:36:36.891Z,88.04
2022-12-03T14:39:05.083Z,88.07
2022-12-03T14:41:51.861Z,88.13
2022-12-03T14:44:23.606Z,88.15
2022-12-03T14:46:56.828Z,88.22
2022-12-03T14:49:25.591Z,88.36
2022-12-03T14:51:54.213Z,88.50
2022-12-03T14:54:22.522Z,88.54
2022-12-03T14:56:50.820Z,88.59
2022-12-03T14:59:23.132Z,88.62
2022-12-03T15:01:55.744Z,88.73
2022-12-03T15:04:25.819Z,88.89
2022-12-03T15:06:53.999Z,88.92
2022-12-03T15:09:23.834Z,89.01
2022-12-03T15:11:52.074Z,89.08
2022-12-03T15:14:23.596Z,89.14
2022-12-03T15:16:51.848Z,89.14
2022-12-03T15:19:20.325Z,89.18
2022-12-03T15:21:48.385Z,89.17
2022-12-03T15:24:17.188Z,89.32
2022-12-03T15:26:45.574Z,89.31
2022-12-03T15:29:13.597Z,89.38
2022-12-03T15:31:41.880Z,89.40
2022-12-03T15:34:10.130Z,89.41
2022-12-03T15:36:38.452Z,89.47
2022-12-03T15:39:06.774Z,89.50
2022-12-03T15:41:34.961Z,89.60
2022-12-03T15:44:03.197Z,89.58
2022-12-03T15:46:31.764Z,89.63
2022-12-03T15:49:00.595Z,89.86
2022-12-03T15:51:28.700Z,89.88
2022-12-03T15:53:56.878Z,89.89
2022-12-03T15:56:25.478Z,89.96
2022-12-03T15:58:53.764Z,89.91
2022-12-03T16:01:22.015Z,89.93
2022-12-03T16:03:52.901Z,89.97
2022-12-03T16:06:21.134Z,90.07
2022-12-03T16:08:52.179Z,90.19
2022-12-03T16:11:20.315Z,90.27
2022-12-03T16:13:51.434Z,90.33
2022-12-03T16:16:19.742Z,90.41
2022-12-03T16:18:48.273Z,90.35
2022-12-03T16:21:16.372Z,90.54
2022-12-03T16:23:44.577Z,90.49
2022-12-03T16:26:12.754Z,90.60
2022-12-03T16:28:40.807Z,90.51
2022-12-03T16:31:09.029Z,90.59
2022-12-03T16:33:37.349Z,90.59
2022-12-03T16:36:05.728Z,90.58
2022-12-03T16:38:33.805Z,90.39
2022-12-03T16:41:02.420Z,90.47
2022-12-03T16:43:35.688Z,90.31
2022-12-03T16:46:27.931Z,90.47
2022-12-03T16:49:00.731Z,90.55
2022-12-03T16:51:32.301Z,90.51
2022-12-03T16:54:00.464Z,90.62
2022-12-03T16:56:28.642Z,90.74
2022-12-03T16:58:57.051Z,90.52
2022-12-03T17:01:28.171Z,90.50
2022-12-03T17:03:56.509Z,90.59
2022-12-03T17:06:26.894Z,90.54
2022-12-03T17:08:55.131Z,90.52
2022-12-03T17:11:23.181Z,90.58
2022-12-03T17:13:51.524Z,90.67
2022-12-03T17:16:19.722Z,90.53
2022-12-03T17:18:51.021Z,90.46
2022-12-03T17:21:19.286Z,90.37
2022-12-03T17:23:51.007Z,90.54
2022-12-03T17:26:19.453Z,90.46
2022-12-03T17:28:47.723Z,90.48
2022-12-03T17:31:16.323Z,90.43
2022-12-03T17:33:44.584Z,90.46
2022-12-03T17:36:13.201Z,90.56
2022-12-03T17:38:41.248Z,90.61
2022-12-03T17:41:10.332Z,90.57
2022-12-03T17:43:38.758Z,90.56
2022-12-03T17:46:07.466Z,90.63
2022-12-03T17:48:36.053Z,90.64
2022-12-03T17:51:04.533Z,90.58
2022-12-03T17:53:32.610Z,90.65
2022-12-03T17:56:00.827Z,90.70
2022-12-03T17:58:29.179Z,90.81
2022-12-03T18:01:02.443Z,90.75
2022-12-03T18:03:31.664Z,90.70
2022-12-03T18:05:59.838Z,90.83
2022-12-03T18:08:34.474Z,91.06
2022-12-03T18:11:05.060Z,91.19
2022-12-03T18:13:33.146Z,91.15
2022-12-03T18:16:01.676Z,91.10
2022-12-03T18:18:29.759Z,91.00
2022-12-03T18:21:02.135Z,91.11
2022-12-03T18:23:32.331Z,91.11
2022-12-03T18:26:02.351Z,91.25
2022-12-03T18:28:31.412Z,91.36
2022-12-03T18:31:00.346Z,91.38
2022-12-03T18:33:28.758Z,91.50
2022-12-03T18:35:58.625Z,91.43
2022-12-03T18:38:30.610Z,91.30
2022-12-03T18:40:59.511Z,91.35
2022-12-03T18:43:28.466Z,91.34
2022-12-03T18:45:56.584Z,91.40
2022-12-03T18:48:25.323Z,91.27
2022-12-03T18:50:53.437Z,91.30
2022-12-03T18:53:24.174Z,91.21
2022-12-03T18:55:52.319Z,91.21
2022-12-03T18:58:20.557Z,91.23
2022-12-03T19:00:48.998Z,91.23
2022-12-03T19:03:17.182Z,91.19
2022-12-03T19:05:45.377Z,91.34
2022-12-03T19:08:15.178Z,91.31
2022-12-03T19:10:43.682Z,91.34
2022-12-03T19:13:12.010Z,91.28
2022-12-03T19:15:40.269Z,91.31
2022-12-03T19:18:08.443Z,91.40
2022-12-03T19:20:40.069Z,91.40
2022-12-03T19:23:09.116Z,91.37
2022-12-03T19:25:37.305Z,91.39
2022-12-03T19:28:05.461Z,91.42
2022-12-03T19:30:33.801Z,91.25
2022-12-03T19:33:01.901Z,91.20
2022-12-03T19:35:31.382Z,91.29
2022-12-03T19:37:59.594Z,91.29
2022-12-03T19:40:27.783Z,91.35
2022-12-03T19:42:56.038Z,91.46
2022-12-03T19:45:24.416Z,91.29
2022-12-03T19:47:52.587Z,91.28
2022-12-03T19:50:23.183Z,91.23
2022-12-03T19:52:54.492Z,91.22
2022-12-03T19:55:22.702Z,91.16
2022-12-03T19:57:53.755Z,91.18
2022-12-03T20:00:22.528Z,91.21
2022-12-03T20:02:50.885Z,91.32
2022-12-03T20:05:19.131Z,91.17
2022-12-03T20:07:47.532Z,91.28
2022-12-03T20:10:15.810Z,91.36
2022-12-03T20:12:44.045Z,91.29
2022-12-03T20:15:14.089Z,91.35
2022-12-03T20:17:42.311Z,91.39
2022-12-03T20:20:10.834Z,91.48
2022-12-03T20:22:39.124Z,91.52
2022-12-03T20:25:07.655Z,91.57
2022-12-03T20:27:36.597Z,91.52
2022-12-03T20:30:07.654Z,91.55
2022-12-03T20:32:39.418Z,91.55
2022-12-03T20:35:12.137Z,91.57
2022-12-03T20:37:40.409Z,91.59
2022-12-03T20:40:09.022Z,91.51
2022-12-03T20:42:37.318Z,91.41
2022-12-03T20:45:05.997Z,91.43
2022-12-03T20:47:34.071Z,91.36
2022-12-03T20:50:02.538Z,91.44
2022-12-03T20:52:30.786Z,91.46
2022-12-03T20:54:58.935Z,91.40
2022-12-03T20:57:30.302Z,91.44
2022-12-03T20:59:58.469Z,91.43
2022-12-03T21:02:26.794Z,91.44
2022-12-03T21:04:55.238Z,91.45
2022-12-03T21:07:23.375Z,91.54
2022-12-03T21:09:51.497Z,91.53
2022-12-03T21:12:19.757Z,91.57
2022-12-03T21:14:47.975Z,91.70
2022-12-03T21:17:16.054Z,91.73
2022-12-03T21:19:44.500Z,91.83
2022-12-03T21:22:12.916Z,91.88
2022-12-03T21:24:42.853Z,91.88
2022-12-03T21:27:11.335Z,92.04
2022-12-03T21:29:39.442Z,91.93
2022-12-03T21:32:07.564Z,92.00
2022-12-03T21:34:36.630Z,92.00
2022-12-03T21:37:04.883Z,92.07
2022-12-03T21:39:33.010Z,92.14
2022-12-03T21:42:25.910Z,92.15
2022-12-03T21:44:49.405Z,92.32
2022-12-03T21:47:17.751Z,92.27
2022-12-03T21:49:45.958Z,92.29
2022-12-03T21:52:14.077Z,92.30
2022-12-03T21:54:42.473Z,92.41
2022-12-03T21:57:10.554Z,92.51
2022-12-03T21:59:38.810Z,92.46
2022-12-03T22:02:07.323Z,92.29
2022-12-03T22:04:35.505Z,92.36
2022-12-03T22:07:04.698Z,92.41
2022-12-03T22:09:33.563Z,92.40
2022-12-03T22:12:01.784Z,92.39
2022-12-03T22:14:30.452Z,92.46
2022-12-03T22:16:59.039Z,92.50
2022-12-03T22:19:27.619Z,92.49
2022-12-03T22:21:55.827Z,92.47
2022-12-03T22:24:24.375Z,92.56
2022-12-03T22:26:54.703Z,92.50
2022-12-03T22:29:22.974Z,92.58
2022-12-03T22:31:51.656Z,92.53
2022-12-03T22:34:19.891Z,92.55
2022-12-03T22:36:47.995Z,92.51
2022-12-03T22:39:16.303Z,92.58
2022-12-03T22:41:44.347Z,92.53
2022-12-03T22:44:12.856Z,92.45
2022-12-03T22:46:41.273Z,92.53
2022-12-03T22:49:09.350Z,92.42
2022-12-03T22:51:37.464Z,92.49
2022-12-03T22:54:06.046Z,92.48
2022-12-03T22:56:34.216Z,92.62
2022-12-03T22:59:02.882Z,92.61
2022-12-03T23:01:39.866Z,92.66
2022-12-03T23:04:10.661Z,92.60
2022-12-03T23:06:39.754Z,92.63
2022-12-03T23:09:08.431Z,92.68
2022-12-03T23:11:37.182Z,92.52
2022-12-03T23:14:05.917Z,92.60
2022-12-03T23:16:34.347Z,92.70
2022-12-03T23:19:03.563Z,92.67
2022-12-03T23:21:34.476Z,92.63
2022-12-03T23:24:04.772Z,92.68
2022-12-03T23:26:36.965Z,92.67
2022-12-03T23:29:06.281Z,92.69
2022-12-03T23:31:35.238Z,92.74
2022-12-03T23:34:04.010Z,92.51
2022-12-03T23:36:33.346Z,92.69
2022-12-03T23:39:01.752Z,92.60
2022-12-03T23:41:30.006Z,92.67
2022-12-03T23:43:58.334Z,92.60
2022-12-03T23:46:27.602Z,92.66
2022-12-03T23:48:58.635Z,92.51
2022-12-03T23:51:27.636Z,92.58
2022-12-03T23:53:56.381Z,92.61
2022-12-03T23:56:30.665Z,92.59
2022-12-03T23:58:58.973Z,92.54
